sensor_id;sensor_type;location;lat;lon;timestamp;pressure;altitude;pressure_sealevel;temperature;humidity
64616;BME280;51027;42.162;24.754;2023-02-22T00:00:12;99526.56;;;13.21;36.59
64616;BME280;51027;42.162;24.754;2023-02-22T00:02:45;99529.28;;;13.20;36.75
64616;BME280;51027;42.162;24.754;2023-02-22T00:05:11;99513.94;;;13.26;36.38
64616;BME280;51027;42.162;24.754;2023-02-22T00:07:39;99529.31;;;13.36;36.20
64616;BME280;51027;42.162;24.754;2023-02-22T00:10:05;99534.28;;;13.42;36.02
64616;BME280;51027;42.162;24.754;2023-02-22T00:12:40;99540.31;;;13.61;35.77
64616;BME280;51027;42.162;24.754;2023-02-22T00:15:07;99535.09;;;13.60;35.67
64616;BME280;51027;42.162;24.754;2023-02-22T00:17:33;99531.03;;;13.70;35.13
64616;BME280;51027;42.162;24.754;2023-02-22T00:19:58;99532.06;;;13.83;35.06
64616;BME280;51027;42.162;24.754;2023-02-22T00:22:24;99529.41;;;13.83;35.28
64616;BME280;51027;42.162;24.754;2023-02-22T00:24:49;99529.72;;;13.77;35.11
64616;BME280;51027;42.162;24.754;2023-02-22T00:27:15;99529.59;;;13.80;35.35
64616;BME280;51027;42.162;24.754;2023-02-22T00:29:44;99534.94;;;13.78;35.03
64616;BME280;51027;42.162;24.754;2023-02-22T00:32:10;99535.78;;;13.79;35.26
64616;BME280;51027;42.162;24.754;2023-02-22T00:34:36;99515.28;;;13.67;35.21
64616;BME280;51027;42.162;24.754;2023-02-22T00:37:01;99515.31;;;13.82;34.99
64616;BME280;51027;42.162;24.754;2023-02-22T00:39:29;99536.22;;;13.87;35.13
64616;BME280;51027;42.162;24.754;2023-02-22T00:41:54;99511.03;;;13.96;34.73
64616;BME280;51027;42.162;24.754;2023-02-22T00:44:20;99523.94;;;13.86;35.04
64616;BME280;51027;42.162;24.754;2023-02-22T00:46:46;99534.09;;;13.94;35.03
64616;BME280;51027;42.162;24.754;2023-02-22T00:49:11;99536.06;;;13.90;35.17
64616;BME280;51027;42.162;24.754;2023-02-22T00:51:37;99515.47;;;13.64;35.38
64616;BME280;51027;42.162;24.754;2023-02-22T00:54:02;99521.03;;;13.59;35.64
64616;BME280;51027;42.162;24.754;2023-02-22T00:56:32;99537.31;;;13.67;35.72
64616;BME280;51027;42.162;24.754;2023-02-22T00:58:58;99544.84;;;13.59;35.99
64616;BME280;51027;42.162;24.754;2023-02-22T01:01:25;99544.13;;;13.55;36.16
64616;BME280;51027;42.162;24.754;2023-02-22T01:03:51;99539.53;;;13.59;35.88
64616;BME280;51027;42.162;24.754;2023-02-22T01:06:16;99543.38;;;13.53;36.16
64616;BME280;51027;42.162;24.754;2023-02-22T01:08:46;99537.31;;;13.51;36.17
64616;BME280;51027;42.162;24.754;2023-02-22T01:11:12;99524.66;;;13.57;36.21
64616;BME280;51027;42.162;24.754;2023-02-22T01:13:37;99530.31;;;13.50;36.40
64616;BME280;51027;42.162;24.754;2023-02-22T01:16:04;99524.31;;;13.47;36.46
64616;BME280;51027;42.162;24.754;2023-02-22T01:18:33;99537.13;;;13.54;36.37
64616;BME280;51027;42.162;24.754;2023-02-22T01:21:00;99534.41;;;13.56;36.48
64616;BME280;51027;42.162;24.754;2023-02-22T01:23:26;99536.44;;;13.51;36.53
64616;BME280;51027;42.162;24.754;2023-02-22T01:25:51;99513.06;;;13.26;36.73
64616;BME280;51027;42.162;24.754;2023-02-22T01:28:17;99504.38;;;13.24;36.61
64616;BME280;51027;42.162;24.754;2023-02-22T01:30:43;99520.16;;;13.25;36.90
64616;BME280;51027;42.162;24.754;2023-02-22T01:33:08;99526.75;;;13.34;36.76
64616;BME280;51027;42.162;24.754;2023-02-22T01:35:36;99524.75;;;13.39;36.63
64616;BME280;51027;42.162;24.754;2023-02-22T01:38:05;99521.38;;;13.36;36.79
64616;BME280;51027;42.162;24.754;2023-02-22T01:40:33;99524.44;;;13.28;36.87
64616;BME280;51027;42.162;24.754;2023-02-22T01:43:02;99517.59;;;13.24;36.96
64616;BME280;51027;42.162;24.754;2023-02-22T01:50:25;99528.25;;;13.22;36.93
64616;BME280;51027;42.162;24.754;2023-02-22T01:52:51;99527.84;;;13.13;37.13
64616;BME280;51027;42.162;24.754;2023-02-22T01:55:16;99528.53;;;13.16;36.68
64616;BME280;51027;42.162;24.754;2023-02-22T01:57:42;99526.69;;;13.18;37.05
64616;BME280;51027;42.162;24.754;2023-02-22T02:00:12;99517.59;;;13.07;36.99
64616;BME280;51027;42.162;24.754;2023-02-22T02:02:43;99533.16;;;13.13;37.10
64616;BME280;51027;42.162;24.754;2023-02-22T02:05:10;99498.72;;;12.97;36.85
64616;BME280;51027;42.162;24.754;2023-02-22T02:07:37;99525.13;;;13.14;36.87
64616;BME280;51027;42.162;24.754;2023-02-22T02:10:09;99533.63;;;13.04;37.17
64616;BME280;51027;42.162;24.754;2023-02-22T02:12:42;99548.16;;;12.95;37.40
64616;BME280;51027;42.162;24.754;2023-02-22T02:17:46;99552.59;;;12.24;39.62
64616;BME280;51027;42.162;24.754;2023-02-22T02:34:19;99551.50;;;12.47;38.98
64616;BME280;51027;42.162;24.754;2023-02-22T02:39:40;99551.03;;;12.38;39.01
64616;BME280;51027;42.162;24.754;2023-02-22T02:42:13;99554.16;;;12.47;38.82
64616;BME280;51027;42.162;24.754;2023-02-22T02:44:54;99534.84;;;12.27;39.31
64616;BME280;51027;42.162;24.754;2023-02-22T02:47:26;99551.53;;;12.28;39.28
64616;BME280;51027;42.162;24.754;2023-02-22T02:50:04;99540.56;;;12.18;39.23
64616;BME280;51027;42.162;24.754;2023-02-22T02:52:32;99564.16;;;12.21;39.68
64616;BME280;51027;42.162;24.754;2023-02-22T02:54:59;99560.53;;;12.05;40.08
64616;BME280;51027;42.162;24.754;2023-02-22T02:57:26;99564.50;;;11.96;40.20
64616;BME280;51027;42.162;24.754;2023-02-22T02:59:52;99567.00;;;11.60;40.90
64616;BME280;51027;42.162;24.754;2023-02-22T03:10:51;99565.22;;;11.61;40.75
64616;BME280;51027;42.162;24.754;2023-02-22T03:18:26;99568.25;;;11.91;39.74
64616;BME280;51027;42.162;24.754;2023-02-22T03:21:27;99572.91;;;11.86;39.91
64616;BME280;51027;42.162;24.754;2023-02-22T03:24:44;99569.13;;;11.52;40.89
64616;BME280;51027;42.162;24.754;2023-02-22T03:27:11;99572.56;;;10.94;42.06
64616;BME280;51027;42.162;24.754;2023-02-22T03:29:42;99588.00;;;10.82;42.72
64616;BME280;51027;42.162;24.754;2023-02-22T03:32:13;99573.09;;;10.60;42.96
64616;BME280;51027;42.162;24.754;2023-02-22T03:34:44;99598.88;;;10.52;43.46
64616;BME280;51027;42.162;24.754;2023-02-22T03:37:19;99606.19;;;10.46;43.46
64616;BME280;51027;42.162;24.754;2023-02-22T03:39:48;99582.84;;;10.36;43.55
64616;BME280;51027;42.162;24.754;2023-02-22T03:42:25;99592.38;;;10.39;43.33
64616;BME280;51027;42.162;24.754;2023-02-22T03:44:57;99592.50;;;10.58;43.11
64616;BME280;51027;42.162;24.754;2023-02-22T03:47:29;99598.97;;;10.71;43.10
64616;BME280;51027;42.162;24.754;2023-02-22T03:50:02;99598.31;;;10.66;42.90
64616;BME280;51027;42.162;24.754;2023-02-22T03:52:34;99592.81;;;10.50;43.41
64616;BME280;51027;42.162;24.754;2023-02-22T03:55:01;99597.25;;;10.70;43.02
64616;BME280;51027;42.162;24.754;2023-02-22T03:57:32;99596.00;;;10.58;43.06
64616;BME280;51027;42.162;24.754;2023-02-22T03:59:59;99586.53;;;10.54;42.84
64616;BME280;51027;42.162;24.754;2023-02-22T04:02:25;99581.53;;;10.68;42.31
64616;BME280;51027;42.162;24.754;2023-02-22T04:04:50;99601.13;;;10.83;42.20
64616;BME280;51027;42.162;24.754;2023-02-22T04:07:16;99592.16;;;10.87;41.48
64616;BME280;51027;42.162;24.754;2023-02-22T04:09:41;99583.53;;;10.84;41.46
64616;BME280;51027;42.162;24.754;2023-02-22T04:12:07;99589.28;;;10.93;41.23
64616;BME280;51027;42.162;24.754;2023-02-22T04:14:33;99583.19;;;10.91;41.20
64616;BME280;51027;42.162;24.754;2023-02-22T04:16:58;99580.84;;;10.85;40.98
64616;BME280;51027;42.162;24.754;2023-02-22T04:19:24;99596.06;;;10.99;41.15
64616;BME280;51027;42.162;24.754;2023-02-22T04:21:49;99598.56;;;11.02;41.04
64616;BME280;51027;42.162;24.754;2023-02-22T04:24:14;99600.22;;;11.05;40.70
64616;BME280;51027;42.162;24.754;2023-02-22T04:26:40;99590.75;;;10.79;41.07
64616;BME280;51027;42.162;24.754;2023-02-22T04:29:06;99595.41;;;10.94;40.93
64616;BME280;51027;42.162;24.754;2023-02-22T04:31:32;99548.47;;;10.82;40.49
64616;BME280;51027;42.162;24.754;2023-02-22T04:33:59;99601.78;;;11.29;39.89
64616;BME280;51027;42.162;24.754;2023-02-22T04:36:25;99608.13;;;11.25;40.13
64616;BME280;51027;42.162;24.754;2023-02-22T04:38:51;99578.84;;;11.11;40.11
64616;BME280;51027;42.162;24.754;2023-02-22T04:41:17;99595.25;;;11.38;39.77
64616;BME280;51027;42.162;24.754;2023-02-22T04:43:43;99606.34;;;11.46;39.45
64616;BME280;51027;42.162;24.754;2023-02-22T04:46:08;99569.91;;;11.35;39.43
64616;BME280;51027;42.162;24.754;2023-02-22T04:48:34;99598.44;;;11.46;39.47
64616;BME280;51027;42.162;24.754;2023-02-22T04:50:59;99593.84;;;11.49;39.64
64616;BME280;51027;42.162;24.754;2023-02-22T04:53:24;99572.38;;;11.38;39.34
64616;BME280;51027;42.162;24.754;2023-02-22T04:55:50;99581.66;;;11.47;39.52
64616;BME280;51027;42.162;24.754;2023-02-22T04:58:16;99580.22;;;11.40;39.74
64616;BME280;51027;42.162;24.754;2023-02-22T05:00:41;99591.16;;;11.51;39.72
64616;BME280;51027;42.162;24.754;2023-02-22T05:03:06;99595.38;;;11.55;39.51
64616;BME280;51027;42.162;24.754;2023-02-22T05:05:32;99591.16;;;11.51;39.78
64616;BME280;51027;42.162;24.754;2023-02-22T05:07:58;99587.03;;;11.45;39.51
64616;BME280;51027;42.162;24.754;2023-02-22T05:10:23;99589.63;;;11.66;39.22
64616;BME280;51027;42.162;24.754;2023-02-22T05:12:49;99585.28;;;11.65;39.12
64616;BME280;51027;42.162;24.754;2023-02-22T05:15:18;99593.56;;;11.76;39.07
64616;BME280;51027;42.162;24.754;2023-02-22T05:17:44;99598.38;;;11.66;39.50
64616;BME280;51027;42.162;24.754;2023-02-22T05:20:20;99592.38;;;11.63;39.57
64616;BME280;51027;42.162;24.754;2023-02-22T05:22:46;99601.97;;;11.65;39.55
64616;BME280;51027;42.162;24.754;2023-02-22T05:25:11;99604.97;;;11.76;39.43
64616;BME280;51027;42.162;24.754;2023-02-22T05:27:36;99601.00;;;11.87;39.40
64616;BME280;51027;42.162;24.754;2023-02-22T05:30:03;99602.16;;;12.00;38.53
64616;BME280;51027;42.162;24.754;2023-02-22T05:32:29;99607.56;;;12.16;38.18
64616;BME280;51027;42.162;24.754;2023-02-22T05:34:54;99602.84;;;12.22;38.17
64616;BME280;51027;42.162;24.754;2023-02-22T05:37:19;99605.06;;;12.31;37.84
64616;BME280;51027;42.162;24.754;2023-02-22T05:39:45;99606.56;;;12.37;38.13
64616;BME280;51027;42.162;24.754;2023-02-22T05:42:10;99605.25;;;12.46;37.76
64616;BME280;51027;42.162;24.754;2023-02-22T05:44:36;99609.03;;;12.40;37.74
64616;BME280;51027;42.162;24.754;2023-02-22T05:47:02;99607.66;;;12.50;37.80
64616;BME280;51027;42.162;24.754;2023-02-22T05:49:27;99616.78;;;12.62;37.43
64616;BME280;51027;42.162;24.754;2023-02-22T05:51:53;99611.50;;;12.62;37.67
64616;BME280;51027;42.162;24.754;2023-02-22T05:54:23;99610.41;;;12.66;37.45
64616;BME280;51027;42.162;24.754;2023-02-22T05:56:48;99623.72;;;12.82;37.44
64616;BME280;51027;42.162;24.754;2023-02-22T05:59:14;99592.00;;;12.64;37.46
64616;BME280;51027;42.162;24.754;2023-02-22T06:01:39;99632.28;;;12.87;37.56
64616;BME280;51027;42.162;24.754;2023-02-22T06:04:05;99635.41;;;12.95;37.16
64616;BME280;51027;42.162;24.754;2023-02-22T06:06:30;99640.22;;;13.04;36.85
64616;BME280;51027;42.162;24.754;2023-02-22T06:08:55;99638.06;;;13.12;36.68
64616;BME280;51027;42.162;24.754;2023-02-22T06:11:21;99628.06;;;13.19;36.48
64616;BME280;51027;42.162;24.754;2023-02-22T06:13:51;99635.69;;;13.25;36.38
64616;BME280;51027;42.162;24.754;2023-02-22T06:16:18;99633.38;;;13.19;36.67
64616;BME280;51027;42.162;24.754;2023-02-22T06:18:45;99649.50;;;13.13;37.07
64616;BME280;51027;42.162;24.754;2023-02-22T06:21:10;99640.88;;;13.09;37.18
64616;BME280;51027;42.162;24.754;2023-02-22T06:23:36;99648.41;;;13.17;37.18
64616;BME280;51027;42.162;24.754;2023-02-22T06:26:01;99626.47;;;13.15;36.98
64616;BME280;51027;42.162;24.754;2023-02-22T06:28:27;99641.44;;;13.33;36.48
64616;BME280;51027;42.162;24.754;2023-02-22T06:30:52;99647.41;;;13.37;36.74
64616;BME280;51027;42.162;24.754;2023-02-22T06:33:18;99636.16;;;13.33;36.56
64616;BME280;51027;42.162;24.754;2023-02-22T06:35:43;99632.56;;;13.34;36.43
64616;BME280;51027;42.162;24.754;2023-02-22T06:38:09;99632.53;;;13.17;36.58
64616;BME280;51027;42.162;24.754;2023-02-22T06:40:35;99640.81;;;13.28;36.54
64616;BME280;51027;42.162;24.754;2023-02-22T06:43:01;99658.38;;;13.46;36.53
64616;BME280;51027;42.162;24.754;2023-02-22T06:45:27;99663.94;;;13.42;36.53
64616;BME280;51027;42.162;24.754;2023-02-22T06:47:52;99660.25;;;13.10;37.71
64616;BME280;51027;42.162;24.754;2023-02-22T06:52:45;99663.41;;;17.11;32.06
64616;BME280;51027;42.162;24.754;2023-02-22T06:55:16;99656.34;;;15.12;34.50
64616;BME280;51027;42.162;24.754;2023-02-22T06:57:41;99654.53;;;17.50;31.57
64616;BME280;51027;42.162;24.754;2023-02-22T07:00:07;99615.22;;;19.02;28.95
64616;BME280;51027;42.162;24.754;2023-02-22T07:02:33;99662.94;;;19.88;27.89
64616;BME280;51027;42.162;24.754;2023-02-22T07:05:00;99659.97;;;20.81;26.76
64616;BME280;51027;42.162;24.754;2023-02-22T07:07:25;99656.41;;;20.03;27.47
64616;BME280;51027;42.162;24.754;2023-02-22T07:09:51;99666.25;;;20.03;27.96
64616;BME280;51027;42.162;24.754;2023-02-22T07:12:16;99663.66;;;21.44;26.19
64616;BME280;51027;42.162;24.754;2023-02-22T07:14:41;99656.84;;;20.42;27.24
64616;BME280;51027;42.162;24.754;2023-02-22T07:17:07;99653.69;;;16.97;32.06
64616;BME280;51027;42.162;24.754;2023-02-22T07:19:32;99661.75;;;17.88;31.05
64616;BME280;51027;42.162;24.754;2023-02-22T07:21:58;99644.78;;;17.11;31.79
64616;BME280;51027;42.162;24.754;2023-02-22T07:24:24;99649.91;;;16.87;31.62
64616;BME280;51027;42.162;24.754;2023-02-22T07:26:51;99659.66;;;19.73;27.73
64616;BME280;51027;42.162;24.754;2023-02-22T07:29:16;99655.22;;;21.27;25.18
64616;BME280;51027;42.162;24.754;2023-02-22T07:31:41;99644.25;;;22.74;23.51
64616;BME280;51027;42.162;24.754;2023-02-22T07:34:07;99639.38;;;22.38;23.78
64616;BME280;51027;42.162;24.754;2023-02-22T07:36:32;99636.09;;;23.52;22.54
64616;BME280;51027;42.162;24.754;2023-02-22T07:38:58;99626.25;;;24.55;21.41
64616;BME280;51027;42.162;24.754;2023-02-22T07:41:24;99638.19;;;22.31;23.07
64616;BME280;51027;42.162;24.754;2023-02-22T07:43:49;99651.91;;;21.24;24.53
64616;BME280;51027;42.162;24.754;2023-02-22T07:46:14;99637.19;;;22.02;23.82
64616;BME280;51027;42.162;24.754;2023-02-22T07:48:40;99636.47;;;23.57;22.16
64616;BME280;51027;42.162;24.754;2023-02-22T07:51:06;99627.88;;;23.54;21.91
64616;BME280;51027;42.162;24.754;2023-02-22T07:53:32;99638.41;;;23.94;21.61
64616;BME280;51027;42.162;24.754;2023-02-22T07:56:03;99625.53;;;24.35;21.22
64616;BME280;51027;42.162;24.754;2023-02-22T07:58:30;99626.53;;;24.79;20.63
64616;BME280;51027;42.162;24.754;2023-02-22T08:00:56;99619.03;;;26.22;19.40
64616;BME280;51027;42.162;24.754;2023-02-22T08:03:23;99613.47;;;26.66;18.86
64616;BME280;51027;42.162;24.754;2023-02-22T08:05:51;99619.97;;;27.95;17.92
64616;BME280;51027;42.162;24.754;2023-02-22T08:08:17;99621.44;;;23.94;21.20
64616;BME280;51027;42.162;24.754;2023-02-22T08:10:43;99625.06;;;25.56;20.21
64616;BME280;51027;42.162;24.754;2023-02-22T08:13:10;99611.38;;;24.96;20.54
64616;BME280;51027;42.162;24.754;2023-02-22T08:15:38;99615.34;;;23.92;21.54
64616;BME280;51027;42.162;24.754;2023-02-22T08:18:09;99598.97;;;26.17;19.98
64616;BME280;51027;42.162;24.754;2023-02-22T08:20:37;99614.19;;;26.34;19.83
64616;BME280;51027;42.162;24.754;2023-02-22T08:23:03;99612.00;;;26.80;19.18
64616;BME280;51027;42.162;24.754;2023-02-22T08:25:29;99602.13;;;28.56;17.46
64616;BME280;51027;42.162;24.754;2023-02-22T08:28:04;99610.84;;;28.44;17.91
64616;BME280;51027;42.162;24.754;2023-02-22T08:30:31;99611.22;;;27.52;18.77
64616;BME280;51027;42.162;24.754;2023-02-22T08:32:58;99591.44;;;26.36;19.59
64616;BME280;51027;42.162;24.754;2023-02-22T08:35:23;99600.06;;;27.72;18.98
64616;BME280;51027;42.162;24.754;2023-02-22T08:37:52;99596.69;;;26.38;19.59
64616;BME280;51027;42.162;24.754;2023-02-22T08:40:21;99599.34;;;26.96;19.49
64616;BME280;51027;42.162;24.754;2023-02-22T08:42:47;99600.69;;;29.22;17.29
64616;BME280;51027;42.162;24.754;2023-02-22T08:45:12;99594.44;;;27.90;18.31
64616;BME280;51027;42.162;24.754;2023-02-22T08:47:39;99597.16;;;27.81;18.83
64616;BME280;51027;42.162;24.754;2023-02-22T08:50:05;99606.81;;;24.79;21.13
64616;BME280;51027;42.162;24.754;2023-02-22T08:52:30;99588.66;;;25.60;20.52
64616;BME280;51027;42.162;24.754;2023-02-22T08:54:56;99592.03;;;25.00;21.04
64616;BME280;51027;42.162;24.754;2023-02-22T08:57:21;99590.63;;;26.44;19.97
64616;BME280;51027;42.162;24.754;2023-02-22T08:59:47;99586.34;;;28.60;18.30
64616;BME280;51027;42.162;24.754;2023-02-22T09:02:17;99591.50;;;31.22;16.20
64616;BME280;51027;42.162;24.754;2023-02-22T09:04:44;99592.06;;;31.88;15.62
64616;BME280;51027;42.162;24.754;2023-02-22T09:07:11;99593.59;;;32.04;15.60
64616;BME280;51027;42.162;24.754;2023-02-22T09:09:36;99578.38;;;32.64;15.02
64616;BME280;51027;42.162;24.754;2023-02-22T09:12:03;99595.31;;;29.75;17.23
64616;BME280;51027;42.162;24.754;2023-02-22T09:14:28;99578.16;;;29.89;17.01
64616;BME280;51027;42.162;24.754;2023-02-22T09:16:53;99585.09;;;31.08;16.17
64616;BME280;51027;42.162;24.754;2023-02-22T09:19:19;99579.00;;;31.06;16.33
64616;BME280;51027;42.162;24.754;2023-02-22T09:21:44;99571.34;;;30.23;16.73
64616;BME280;51027;42.162;24.754;2023-02-22T09:24:16;99588.56;;;30.81;16.46
64616;BME280;51027;42.162;24.754;2023-02-22T09:26:45;99599.06;;;31.05;16.56
64616;BME280;51027;42.162;24.754;2023-02-22T09:29:11;99599.69;;;33.08;14.95
64616;BME280;51027;42.162;24.754;2023-02-22T09:31:40;99590.91;;;26.91;19.44
64616;BME280;51027;42.162;24.754;2023-02-22T09:34:07;99588.91;;;27.34;18.93
64616;BME280;51027;42.162;24.754;2023-02-22T09:36:44;99587.97;;;31.77;15.84
64616;BME280;51027;42.162;24.754;2023-02-22T09:39:13;99578.72;;;32.00;15.34
64616;BME280;51027;42.162;24.754;2023-02-22T09:44:35;99570.78;;;31.21;16.05
64616;BME280;51027;42.162;24.754;2023-02-22T09:47:03;99572.22;;;32.42;15.03
64616;BME280;51027;42.162;24.754;2023-02-22T09:49:39;99583.63;;;32.65;15.00
64616;BME280;51027;42.162;24.754;2023-02-22T09:52:25;99575.66;;;28.35;17.90
64616;BME280;51027;42.162;24.754;2023-02-22T09:57:42;99569.28;;;29.80;16.83
64616;BME280;51027;42.162;24.754;2023-02-22T10:03:06;99560.03;;;30.55;16.61
64616;BME280;51027;42.162;24.754;2023-02-22T10:05:39;99561.38;;;31.02;16.18
64616;BME280;51027;42.162;24.754;2023-02-22T10:08:12;99556.00;;;29.86;16.93
64616;BME280;51027;42.162;24.754;2023-02-22T10:10:40;99553.38;;;30.58;16.33
64616;BME280;51027;42.162;24.754;2023-02-22T10:13:49;99547.34;;;31.20;16.17
64616;BME280;51027;42.162;24.754;2023-02-22T10:18:51;99543.28;;;32.00;15.31
64616;BME280;51027;42.162;24.754;2023-02-22T10:27:36;99527.25;;;30.63;16.40
64616;BME280;51027;42.162;24.754;2023-02-22T10:32:40;99513.75;;;31.69;15.99
64616;BME280;51027;42.162;24.754;2023-02-22T10:35:34;99511.41;;;30.09;16.94
64616;BME280;51027;42.162;24.754;2023-02-22T10:38:32;99500.59;;;30.52;16.07
64616;BME280;51027;42.162;24.754;2023-02-22T10:41:02;99489.81;;;29.05;17.63
64616;BME280;51027;42.162;24.754;2023-02-22T10:43:40;99496.25;;;28.27;18.26
64616;BME280;51027;42.162;24.754;2023-02-22T10:46:10;99483.44;;;28.52;18.41
64616;BME280;51027;42.162;24.754;2023-02-22T10:48:39;99464.47;;;27.42;19.10
64616;BME280;51027;42.162;24.754;2023-02-22T10:51:07;99470.19;;;27.47;18.24
64616;BME280;51027;42.162;24.754;2023-02-22T10:53:34;99475.53;;;27.80;18.22
64616;BME280;51027;42.162;24.754;2023-02-22T10:56:22;99461.16;;;24.36;21.32
64616;BME280;51027;42.162;24.754;2023-02-22T11:03:43;99446.72;;;25.33;21.00
64616;BME280;51027;42.162;24.754;2023-02-22T11:06:19;99448.44;;;26.35;19.82
64616;BME280;51027;42.162;24.754;2023-02-22T11:08:46;99443.06;;;29.62;17.56
64616;BME280;51027;42.162;24.754;2023-02-22T11:11:23;99452.19;;;32.29;15.19
64616;BME280;51027;42.162;24.754;2023-02-22T11:13:55;99427.84;;;33.60;14.20
64616;BME280;51027;42.162;24.754;2023-02-22T11:16:33;99432.84;;;33.76;14.33
64616;BME280;51027;42.162;24.754;2023-02-22T11:19:23;99440.63;;;31.03;15.07
64616;BME280;51027;42.162;24.754;2023-02-22T11:21:56;99430.94;;;31.57;15.03
64616;BME280;51027;42.162;24.754;2023-02-22T11:24:23;99404.78;;;29.42;16.57
64616;BME280;51027;42.162;24.754;2023-02-22T11:26:57;99418.28;;;30.37;15.93
64616;BME280;51027;42.162;24.754;2023-02-22T11:29:36;99415.78;;;30.35;15.92
64616;BME280;51027;42.162;24.754;2023-02-22T11:32:12;99420.28;;;31.20;15.60
64616;BME280;51027;42.162;24.754;2023-02-22T11:34:40;99411.13;;;32.37;14.40
64616;BME280;51027;42.162;24.754;2023-02-22T11:39:47;99410.72;;;33.84;13.71
64616;BME280;51027;42.162;24.754;2023-02-22T11:42:23;99407.19;;;31.44;15.03
64616;BME280;51027;42.162;24.754;2023-02-22T11:45:10;99404.44;;;30.32;15.42
64616;BME280;51027;42.162;24.754;2023-02-22T11:47:48;99398.19;;;31.09;15.36
64616;BME280;51027;42.162;24.754;2023-02-22T11:50:50;99395.75;;;28.22;17.34
64616;BME280;51027;42.162;24.754;2023-02-22T11:53:51;99394.47;;;30.03;15.89
64616;BME280;51027;42.162;24.754;2023-02-22T11:56:28;99363.91;;;29.43;16.30
64616;BME280;51027;42.162;24.754;2023-02-22T11:59:17;99380.78;;;26.53;18.74
64616;BME280;51027;42.162;24.754;2023-02-22T12:01:56;99383.84;;;26.50;18.82
64616;BME280;51027;42.162;24.754;2023-02-22T12:15:31;99364.03;;;27.45;17.95
64616;BME280;51027;42.162;24.754;2023-02-22T12:18:20;99362.16;;;28.54;16.92
64616;BME280;51027;42.162;24.754;2023-02-22T12:21:01;99358.69;;;28.60;17.50
64616;BME280;51027;42.162;24.754;2023-02-22T12:23:39;99354.72;;;29.74;16.09
64616;BME280;51027;42.162;24.754;2023-02-22T12:26:26;99350.84;;;33.24;13.86
64616;BME280;51027;42.162;24.754;2023-02-22T12:29:00;99333.09;;;32.82;13.95
64616;BME280;51027;42.162;24.754;2023-02-22T12:37:17;99344.34;;;34.15;13.62
64616;BME280;51027;42.162;24.754;2023-02-22T12:39:54;99339.75;;;33.71;13.69
64616;BME280;51027;42.162;24.754;2023-02-22T12:42:46;99328.69;;;32.48;14.12
64616;BME280;51027;42.162;24.754;2023-02-22T12:45:37;99337.72;;;32.29;14.49
64616;BME280;51027;42.162;24.754;2023-02-22T12:48:14;99351.31;;;32.16;14.48
64616;BME280;51027;42.162;24.754;2023-02-22T12:50:46;99334.63;;;30.11;15.72
64616;BME280;51027;42.162;24.754;2023-02-22T12:53:16;99335.06;;;28.54;16.93
64616;BME280;51027;42.162;24.754;2023-02-22T12:55:56;99327.50;;;25.47;18.81
64616;BME280;51027;42.162;24.754;2023-02-22T12:58:28;99332.03;;;25.47;19.59
64616;BME280;51027;42.162;24.754;2023-02-22T13:01:18;99336.34;;;27.97;17.74
64616;BME280;51027;42.162;24.754;2023-02-22T13:03:45;99322.09;;;30.59;15.70
64616;BME280;51027;42.162;24.754;2023-02-22T13:06:35;99319.94;;;30.55;15.26
64616;BME280;51027;42.162;24.754;2023-02-22T13:09:21;99317.25;;;34.14;13.36
64616;BME280;51027;42.162;24.754;2023-02-22T13:12:11;99322.44;;;31.12;14.95
64616;BME280;51027;42.162;24.754;2023-02-22T13:23:13;99324.44;;;31.79;14.94
64616;BME280;51027;42.162;24.754;2023-02-22T13:25:49;99315.00;;;33.66;13.58
64616;BME280;51027;42.162;24.754;2023-02-22T13:31:09;99300.53;;;29.66;15.79
64616;BME280;51027;42.162;24.754;2023-02-22T13:33:59;99313.56;;;31.32;15.14
64616;BME280;51027;42.162;24.754;2023-02-22T13:36:43;99308.75;;;32.74;13.81
64616;BME280;51027;42.162;24.754;2023-02-22T13:47:49;99306.66;;;32.76;13.63
64616;BME280;51027;42.162;24.754;2023-02-22T13:52:57;99308.47;;;33.67;13.32
64616;BME280;51027;42.162;24.754;2023-02-22T13:55:28;99304.22;;;31.13;14.82
64616;BME280;51027;42.162;24.754;2023-02-22T13:58:14;99309.19;;;31.37;15.14
64616;BME280;51027;42.162;24.754;2023-02-22T14:10:44;99314.44;;;27.53;18.31
64616;BME280;51027;42.162;24.754;2023-02-22T14:13:12;99315.78;;;29.67;16.64
64616;BME280;51027;42.162;24.754;2023-02-22T14:18:23;99323.13;;;27.79;17.59
64616;BME280;51027;42.162;24.754;2023-02-22T14:21:19;99304.06;;;27.34;18.47
64616;BME280;51027;42.162;24.754;2023-02-22T14:23:47;99305.56;;;28.74;16.80
64616;BME280;51027;42.162;24.754;2023-02-22T14:26:26;99304.47;;;31.18;15.31
64616;BME280;51027;42.162;24.754;2023-02-22T14:34:17;99299.28;;;30.60;15.92
64616;BME280;51027;42.162;24.754;2023-02-22T14:36:57;99306.19;;;30.07;15.86
64616;BME280;51027;42.162;24.754;2023-02-22T14:39:33;99308.31;;;31.30;14.83
64616;BME280;51027;42.162;24.754;2023-02-22T14:42:07;99305.19;;;30.36;16.10
64616;BME280;51027;42.162;24.754;2023-02-22T14:47:29;99298.16;;;28.53;17.18
64616;BME280;51027;42.162;24.754;2023-02-22T14:50:04;99299.81;;;28.16;17.12
64616;BME280;51027;42.162;24.754;2023-02-22T14:52:35;99304.88;;;28.42;17.17
64616;BME280;51027;42.162;24.754;2023-02-22T14:55:21;99300.56;;;27.25;17.98
64616;BME280;51027;42.162;24.754;2023-02-22T15:00:25;99270.59;;;25.83;19.30
64616;BME280;51027;42.162;24.754;2023-02-22T15:02:58;99297.03;;;26.69;18.59
64616;BME280;51027;42.162;24.754;2023-02-22T15:05:26;99302.56;;;26.84;18.12
64616;BME280;51027;42.162;24.754;2023-02-22T15:08:06;99293.81;;;25.68;19.31
64616;BME280;51027;42.162;24.754;2023-02-22T15:13:03;99311.63;;;23.25;21.68
64616;BME280;51027;42.162;24.754;2023-02-22T15:15:43;99295.22;;;22.64;22.85
64616;BME280;51027;42.162;24.754;2023-02-22T15:18:25;99282.75;;;22.16;22.56